Time;durP1;ratioP1;P1;durP2;ratioP2;P2;SDS_P1;SDS_P2;PMS_P1;PMS_P2;Temp;Humidity;BMP_temperature;BMP_pressure;BME280_temperature;BME280_humidity;BME280_pressure;Samples;Min_cycle;Max_cycle;Signal;HPM_P1;HPM_P2
2021/06/22 00:00:34;;;;;;;5.47;3.97;;;15.30;99.90;;;;;;5067343;28;20192;-39
2021/06/22 00:03:00;;;;;;;4.00;3.47;;;15.30;99.90;;;;;;5079657;28;20960;-39
2021/06/22 00:05:27;;;;;;;4.53;3.80;;;15.20;99.90;;;;;;5080311;28;20438;-40
2021/06/22 00:07:54;;;;;;;7.50;3.70;;;15.20;99.90;;;;;;5063242;28;20422;-40
2021/06/22 00:10:26;;;;;;;4.97;3.77;;;15.30;99.90;;;;;;5085576;28;20856;-39
2021/06/22 00:12:53;;;;;;;3.97;3.53;;;15.30;99.90;;;;;;5086503;28;20982;-40
2021/06/22 00:15:21;;;;;;;5.50;3.60;;;15.40;99.90;;;;;;5085707;28;20787;-39
2021/06/22 00:17:48;;;;;;;4.00;3.13;;;15.20;99.90;;;;;;5078475;28;20430;-40
2021/06/22 00:20:15;;;;;;;6.03;3.00;;;15.30;99.90;;;;;;5081468;28;20458;-39
2021/06/22 00:22:42;;;;;;;5.00;3.17;;;15.30;99.90;;;;;;5079694;28;20740;-39
2021/06/22 00:25:10;;;;;;;4.00;3.20;;;15.20;99.90;;;;;;5085744;28;20513;-41
2021/06/22 00:27:37;;;;;;;5.80;2.93;;;15.10;99.90;;;;;;5084207;28;20410;-41
2021/06/22 00:30:05;;;;;;;3.00;2.77;;;15.20;99.90;;;;;;5084336;28;20419;-40
2021/06/22 00:32:30;;;;;;;3.43;3.10;;;15.20;99.90;;;;;;5081270;28;20433;-41
2021/06/22 00:34:56;;;;;;;4.73;2.83;;;15.10;99.90;;;;;;5079474;28;20426;-39
2021/06/22 00:37:22;;;;;;;4.90;2.77;;;15.00;99.90;;;;;;5065449;28;20184;-40
2021/06/22 00:39:47;;;;;;;5.17;2.63;;;15.00;99.90;;;;;;5085182;28;20283;-40
2021/06/22 00:42:13;;;;;;;5.10;3.00;;;15.00;99.90;;;;;;5085454;28;20208;-39
2021/06/22 00:44:52;;;;;;;4.17;2.43;;;15.00;99.90;;;;;;5085931;28;20192;-40
2021/06/22 00:47:20;;;;;;;4.10;2.63;;;15.00;99.90;;;;;;5062676;28;20597;-40
2021/06/22 00:49:49;;;;;;;3.37;2.70;;;14.90;99.90;;;;;;5079938;28;20446;-39
2021/06/22 00:52:18;;;;;;;3.83;2.47;;;14.90;99.90;;;;;;5082901;28;20419;-40
2021/06/22 00:54:44;;;;;;;3.40;2.43;;;15.00;99.90;;;;;;5086034;28;20472;-41
2021/06/22 00:57:10;;;;;;;3.30;3.00;;;14.90;99.90;;;;;;5067546;28;20415;-39
2021/06/22 00:59:36;;;;;;;4.23;3.10;;;15.00;99.90;;;;;;5088218;28;20548;-40
2021/06/22 01:02:05;;;;;;;7.37;3.30;;;14.90;99.90;;;;;;5086844;28;20287;-40
2021/06/22 01:04:32;;;;;;;6.20;3.33;;;14.90;99.90;;;;;;5080806;28;20536;-39
2021/06/22 01:06:59;;;;;;;4.97;3.50;;;14.90;99.90;;;;;;5082455;28;20411;-40
2021/06/22 01:09:28;;;;;;;4.20;3.80;;;14.90;99.90;;;;;;5088569;28;20433;-39
2021/06/22 01:11:54;;;;;;;3.50;3.20;;;15.00;99.90;;;;;;5071305;28;20752;-40
2021/06/22 01:14:19;;;;;;;5.57;4.33;;;14.90;99.90;;;;;;5089097;28;20467;-40
2021/06/22 01:16:45;;;;;;;6.40;3.53;;;14.90;99.90;;;;;;5089162;28;20422;-39
2021/06/22 01:19:11;;;;;;;5.20;4.00;;;14.90;99.90;;;;;;5079465;28;20196;-39
2021/06/22 01:21:38;;;;;;;3.40;3.10;;;14.90;99.90;;;;;;5086828;28;20193;-40
2021/06/22 01:24:08;;;;;;;5.00;3.83;;;14.90;99.90;;;;;;5088972;28;20461;-39
2021/06/22 01:26:36;;;;;;;4.30;3.70;;;14.90;99.90;;;;;;5088876;28;20410;-40
2021/06/22 01:29:03;;;;;;;5.73;3.97;;;15.00;99.90;;;;;;5088259;28;20426;-40
2021/06/22 01:31:29;;;;;;;8.30;4.70;;;15.00;99.90;;;;;;5069609;28;21235;-39
2021/06/22 01:33:55;;;;;;;5.93;3.90;;;14.90;99.90;;;;;;5082492;28;20575;-39
2021/06/22 01:36:21;;;;;;;4.80;3.50;;;14.90;99.90;;;;;;5088364;28;20658;-39
2021/06/22 01:38:47;;;;;;;6.60;4.00;;;14.90;99.90;;;;;;5088126;28;20685;-40
2021/06/22 01:41:13;;;;;;;4.67;3.40;;;14.90;99.90;;;;;;5088329;28;20422;-40
2021/06/22 01:43:38;;;;;;;4.00;3.13;;;14.90;99.90;;;;;;5088563;28;21007;-40
2021/06/22 01:46:05;;;;;;;7.60;3.97;;;14.90;99.90;;;;;;5088641;28;20273;-39
2021/06/22 01:48:31;;;;;;;4.73;3.70;;;14.90;99.90;;;;;;5077229;28;20246;-39
2021/06/22 01:50:57;;;;;;;3.90;3.23;;;14.80;99.90;;;;;;5058405;28;20454;-39
2021/06/22 01:53:24;;;;;;;5.90;3.53;;;14.70;99.90;;;;;;5063497;28;20507;-39
2021/06/22 01:55:50;;;;;;;4.40;3.40;;;14.70;99.90;;;;;;5088164;28;20414;-39
2021/06/22 01:58:18;;;;;;;5.73;2.97;;;14.70;99.90;;;;;;5088909;28;20456;-40
2021/06/22 02:00:46;;;;;;;3.70;3.23;;;14.70;99.90;;;;;;5069403;28;20414;-39
2021/06/22 02:03:18;;;;;;;7.00;2.80;;;14.70;99.90;;;;;;5087893;28;20458;-39
2021/06/22 02:05:44;;;;;;;2.80;2.53;;;14.70;99.90;;;;;;5079231;28;20414;-41
2021/06/22 02:08:11;;;;;;;3.60;2.90;;;14.70;99.90;;;;;;5086145;28;20879;-39
2021/06/22 02:10:37;;;;;;;4.07;2.40;;;14.70;99.90;;;;;;5086283;28;20427;-39
2021/06/22 02:13:03;;;;;;;5.03;2.90;;;14.70;99.90;;;;;;5088137;28;20494;-39
2021/06/22 02:15:30;;;;;;;8.47;3.67;;;14.80;99.90;;;;;;5087630;28;20489;-39
2021/06/22 02:17:56;;;;;;;3.43;3.13;;;14.70;99.90;;;;;;5083563;28;20428;-40
2021/06/22 02:20:21;;;;;;;5.77;2.90;;;14.70;99.90;;;;;;5075819;28;20580;-39
2021/06/22 02:22:47;;;;;;;6.57;3.30;;;14.60;99.90;;;;;;5085722;28;20208;-39
2021/06/22 02:25:14;;;;;;;4.47;3.10;;;14.50;99.90;;;;;;5069519;28;20625;-39
2021/06/22 02:27:40;;;;;;;3.90;3.50;;;14.50;99.90;;;;;;5069963;28;20548;-39
2021/06/22 02:30:09;;;;;;;5.63;2.97;;;14.50;99.90;;;;;;5087061;28;20419;-40
2021/06/22 02:32:36;;;;;;;3.93;3.10;;;14.60;99.90;;;;;;5085953;28;20418;-40
2021/06/22 02:35:02;;;;;;;4.10;3.47;;;14.60;99.90;;;;;;5078175;28;21491;-39
2021/06/22 02:37:27;;;;;;;6.40;3.47;;;14.60;99.90;;;;;;5081659;28;20419;-39
2021/06/22 02:39:53;;;;;;;7.17;3.33;;;14.50;99.90;;;;;;5085177;28;20418;-39
2021/06/22 02:42:19;;;;;;;7.47;4.27;;;14.50;99.90;;;;;;5069246;28;20208;-39
2021/06/22 02:44:45;;;;;;;10.07;4.83;;;14.40;99.90;;;;;;5087545;28;20414;-39
2021/06/22 02:47:10;;;;;;;4.70;3.80;;;14.40;99.90;;;;;;5087219;28;20414;-39
2021/06/22 02:49:36;;;;;;;9.60;4.80;;;14.50;99.90;;;;;;5059238;28;20192;-42
2021/06/22 02:52:05;;;;;;;8.17;4.40;;;14.50;99.90;;;;;;5081556;28;20176;-39
2021/06/22 02:54:33;;;;;;;7.33;4.23;;;14.50;99.90;;;;;;5085627;28;20284;-39
2021/06/22 02:56:58;;;;;;;7.40;4.43;;;14.60;99.90;;;;;;5069346;28;20433;-41
2021/06/22 02:59:24;;;;;;;5.47;3.97;;;14.60;99.90;;;;;;5086607;28;20411;-40
2021/06/22 03:01:50;;;;;;;8.73;5.40;;;14.60;99.90;;;;;;5087064;28;20228;-39
2021/06/22 03:04:15;;;;;;;6.53;4.37;;;14.60;99.90;;;;;;5059499;28;20220;-39
2021/06/22 03:06:41;;;;;;;9.53;5.03;;;14.50;99.90;;;;;;5083860;28;20724;-40
2021/06/22 03:09:07;;;;;;;9.17;4.97;;;14.50;99.90;;;;;;5086327;28;20188;-40
2021/06/22 03:11:33;;;;;;;7.07;5.07;;;14.50;99.90;;;;;;5087239;28;20180;-40
2021/06/22 03:13:58;;;;;;;7.40;5.70;;;14.40;99.90;;;;;;5086744;28;20188;-39
2021/06/22 03:16:24;;;;;;;8.00;5.43;;;14.50;99.90;;;;;;5087181;28;20243;-41
2021/06/22 03:18:50;;;;;;;9.17;5.60;;;14.40;99.90;;;;;;5060318;28;20197;-39
2021/06/22 03:21:15;;;;;;;7.93;5.43;;;14.30;99.90;;;;;;5082549;28;20181;-40
2021/06/22 03:23:41;;;;;;;8.93;5.87;;;14.30;99.90;;;;;;5081053;28;20219;-39
2021/06/22 03:26:07;;;;;;;8.47;5.70;;;14.30;99.90;;;;;;5087028;28;20605;-40
2021/06/22 03:28:33;;;;;;;10.07;4.93;;;14.40;99.90;;;;;;5086103;28;20418;-39
2021/06/22 03:30:59;;;;;;;10.53;5.93;;;14.40;99.90;;;;;;5083920;28;20176;-39
2021/06/22 03:33:25;;;;;;;11.23;5.30;;;14.30;99.90;;;;;;5080008;28;20208;-40
2021/06/22 03:35:51;;;;;;;9.27;5.50;;;14.40;99.90;;;;;;5055917;28;20426;-39
2021/06/22 03:38:17;;;;;;;11.30;5.97;;;14.30;99.90;;;;;;5081894;28;20425;-40
2021/06/22 03:40:42;;;;;;;10.43;5.60;;;14.30;99.90;;;;;;5086057;28;20192;-40
2021/06/22 03:43:08;;;;;;;11.30;6.50;;;14.20;99.90;;;;;;5068363;28;20219;-40
2021/06/22 03:45:34;;;;;;;8.60;6.47;;;14.30;99.90;;;;;;5068321;28;20184;-39
2021/06/22 03:47:59;;;;;;;12.30;6.00;;;14.20;99.90;;;;;;5086738;28;20250;-40
2021/06/22 03:50:25;;;;;;;12.43;6.57;;;14.20;99.90;;;;;;5059714;28;20311;-39
2021/06/22 03:52:51;;;;;;;9.40;6.47;;;14.20;99.90;;;;;;5068194;28;20388;-39
2021/06/22 03:55:31;;;;;;;9.87;6.17;;;14.30;99.90;;;;;;5086513;28;20248;-40
2021/06/22 03:58:03;;;;;;;12.57;6.30;;;14.20;99.90;;;;;;5086410;28;20291;-39
2021/06/22 04:00:30;;;;;;;9.60;5.70;;;14.30;99.90;;;;;;5085415;28;20785;-39
2021/06/22 04:02:59;;;;;;;10.17;6.03;;;14.20;99.90;;;;;;5086018;28;20823;-41
2021/06/22 04:05:28;;;;;;;6.37;5.03;;;14.20;99.90;;;;;;5072257;28;20432;-39
2021/06/22 04:07:54;;;;;;;9.80;5.20;;;14.30;99.90;;;;;;5084181;28;20418;-39
2021/06/22 04:10:21;;;;;;;10.77;5.87;;;14.30;99.90;;;;;;5065113;28;20467;-40
2021/06/22 04:12:46;;;;;;;10.63;5.63;;;14.30;99.90;;;;;;5082071;28;20271;-41
2021/06/22 04:15:13;;;;;;;8.33;5.67;;;14.20;99.90;;;;;;5085889;28;20859;-40
2021/06/22 04:17:38;;;;;;;8.37;5.50;;;14.20;99.90;;;;;;5086034;28;20191;-39
2021/06/22 04:20:05;;;;;;;13.20;7.37;;;14.20;99.90;;;;;;5062279;28;20525;-39
2021/06/22 04:22:31;;;;;;;7.93;6.70;;;14.20;99.90;;;;;;5078783;28;20761;-39
2021/06/22 04:24:57;;;;;;;9.37;6.33;;;14.20;99.90;;;;;;5063520;28;20555;-41
2021/06/22 04:27:23;;;;;;;13.83;6.90;;;14.20;99.90;;;;;;5085876;28;20229;-40
2021/06/22 04:29:48;;;;;;;11.50;7.90;;;14.20;99.90;;;;;;5085479;28;20177;-39
2021/06/22 04:32:14;;;;;;;14.60;8.00;;;14.30;99.90;;;;;;5084162;28;20521;-42
2021/06/22 04:34:40;;;;;;;10.70;6.93;;;14.30;99.90;;;;;;5088522;28;20400;-40
2021/06/22 04:37:06;;;;;;;11.53;6.80;;;14.40;99.90;;;;;;5084873;28;20809;-40
2021/06/22 04:39:32;;;;;;;9.90;6.67;;;14.50;99.90;;;;;;5088746;28;20899;-41
2021/06/22 04:41:57;;;;;;;10.70;7.03;;;14.40;99.90;;;;;;5089692;28;20207;-40
2021/06/22 04:44:23;;;;;;;7.37;6.27;;;14.30;99.90;;;;;;5090026;28;20303;-40
2021/06/22 04:46:49;;;;;;;9.27;7.00;;;14.40;99.90;;;;;;5089916;28;20203;-40
2021/06/22 04:49:15;;;;;;;9.60;7.00;;;14.40;99.90;;;;;;5088026;28;20430;-39
2021/06/22 04:51:41;;;;;;;8.20;6.03;;;14.50;99.90;;;;;;5082996;28;20180;-39
2021/06/22 04:54:09;;;;;;;11.70;7.37;;;14.50;99.90;;;;;;5079690;28;20276;-41
2021/06/22 04:56:35;;;;;;;12.40;7.50;;;14.30;99.90;;;;;;5087829;28;20192;-39
2021/06/22 04:59:01;;;;;;;11.60;7.63;;;14.30;99.90;;;;;;5086202;28;20943;-40
2021/06/22 05:01:27;;;;;;;11.40;7.60;;;14.20;99.90;;;;;;5088985;28;20191;-40
2021/06/22 05:03:53;;;;;;;10.40;8.27;;;14.30;99.90;;;;;;5087051;28;20228;-40
2021/06/22 05:06:19;;;;;;;17.23;10.13;;;14.20;99.90;;;;;;5058349;28;20913;-42
2021/06/22 05:08:44;;;;;;;14.10;9.80;;;14.20;99.90;;;;;;5082796;28;20262;-39
2021/06/22 05:11:10;;;;;;;12.60;9.67;;;14.20;99.90;;;;;;5088116;28;20513;-39
2021/06/22 05:13:37;;;;;;;12.40;9.47;;;14.20;99.90;;;;;;5078665;28;20276;-39
2021/06/22 05:16:04;;;;;;;11.53;9.10;;;14.30;99.90;;;;;;5088952;28;20556;-40
2021/06/22 05:18:29;;;;;;;11.90;8.93;;;14.30;99.90;;;;;;5089208;28;21063;-40
2021/06/22 05:20:55;;;;;;;9.30;8.33;;;14.30;99.90;;;;;;5084385;28;20553;-40
2021/06/22 05:23:21;;;;;;;9.53;8.50;;;14.30;99.90;;;;;;5083780;28;20270;-40
2021/06/22 05:25:46;;;;;;;13.23;8.93;;;14.30;99.90;;;;;;5088551;28;20176;-42
2021/06/22 05:28:12;;;;;;;9.20;7.90;;;14.20;99.90;;;;;;5088431;28;20177;-39
2021/06/22 05:30:38;;;;;;;12.93;9.60;;;14.20;99.90;;;;;;5086572;28;20188;-39
2021/06/22 05:33:05;;;;;;;11.13;8.20;;;14.20;99.90;;;;;;5088363;28;20511;-39
2021/06/22 05:35:31;;;;;;;13.83;8.67;;;14.30;99.90;;;;;;5084519;28;20896;-40
2021/06/22 05:37:57;;;;;;;14.10;9.63;;;14.30;99.90;;;;;;5084720;28;20425;-41
2021/06/22 05:40:23;;;;;;;16.90;10.53;;;14.30;99.90;;;;;;5087428;28;20422;-40
2021/06/22 05:42:49;;;;;;;13.53;10.57;;;14.30;99.90;;;;;;5087748;28;20473;-40
2021/06/22 05:45:15;;;;;;;19.20;14.00;;;14.30;99.90;;;;;;5088325;28;20419;-40
2021/06/22 05:47:40;;;;;;;22.87;15.10;;;14.40;99.90;;;;;;5088289;28;20253;-39
2021/06/22 05:50:07;;;;;;;18.80;14.53;;;14.40;99.90;;;;;;5078777;28;20439;-40
2021/06/22 05:52:33;;;;;;;22.57;14.03;;;14.40;99.90;;;;;;5078885;28;20709;-39
2021/06/22 05:54:58;;;;;;;17.53;14.33;;;14.50;99.90;;;;;;5082785;28;20517;-40
2021/06/22 05:57:24;;;;;;;19.47;13.53;;;14.50;99.90;;;;;;5072769;28;20536;-41
2021/06/22 05:59:50;;;;;;;17.47;13.80;;;14.60;99.90;;;;;;5087939;28;20253;-39
2021/06/22 06:02:15;;;;;;;19.30;13.30;;;14.70;99.90;;;;;;5088043;28;20255;-39
2021/06/22 06:04:42;;;;;;;15.50;12.00;;;14.70;99.90;;;;;;5085386;28;20176;-40
2021/06/22 06:07:08;;;;;;;15.20;13.60;;;14.70;99.90;;;;;;5063853;28;20181;-42
2021/06/22 06:09:33;;;;;;;15.27;11.97;;;14.80;99.90;;;;;;5085157;28;20464;-41
2021/06/22 06:11:59;;;;;;;17.23;13.17;;;14.80;99.90;;;;;;5086294;28;20655;-40
2021/06/22 06:14:25;;;;;;;14.97;13.37;;;14.90;99.90;;;;;;5074807;28;20254;-39
2021/06/22 06:16:51;;;;;;;15.43;11.80;;;14.90;99.90;;;;;;5085550;28;20215;-39
2021/06/22 06:19:16;;;;;;;15.17;12.57;;;14.80;99.90;;;;;;5068439;28;20424;-39
2021/06/22 06:21:42;;;;;;;14.13;11.67;;;14.80;99.90;;;;;;5080654;28;20594;-41
2021/06/22 06:24:09;;;;;;;15.10;12.37;;;14.90;99.90;;;;;;5069331;28;20283;-39
2021/06/22 06:26:47;;;;;;;13.73;11.97;;;14.90;99.90;;;;;;5069320;28;20426;-39
2021/06/22 06:31:53;;;;;;;15.03;12.40;;;15.00;99.90;;;;;;5085451;28;20499;-41
2021/06/22 06:34:19;;;;;;;14.33;11.83;;;15.00;99.90;;;;;;5085271;28;20453;-40
2021/06/22 06:36:45;;;;;;;13.87;10.67;;;15.00;99.90;;;;;;5082259;28;20417;-40
2021/06/22 06:39:10;;;;;;;13.67;10.40;;;15.10;99.90;;;;;;5081154;28;20180;-39
2021/06/22 06:41:36;;;;;;;12.00;10.63;;;15.20;99.90;;;;;;5086986;28;20210;-41
2021/06/22 06:44:02;;;;;;;14.20;10.80;;;15.10;99.90;;;;;;5087495;28;20581;-39
2021/06/22 06:46:27;;;;;;;13.17;10.67;;;15.20;99.90;;;;;;5069049;28;20188;-40
2021/06/22 06:48:53;;;;;;;13.03;11.77;;;15.20;99.90;;;;;;5086955;28;20219;-40
2021/06/22 06:51:19;;;;;;;14.80;11.53;;;15.30;99.90;;;;;;5056263;28;20273;-39
2021/06/22 06:53:44;;;;;;;14.27;10.00;;;15.40;99.90;;;;;;5050050;28;20558;-43
2021/06/22 06:56:10;;;;;;;12.30;10.80;;;15.40;99.90;;;;;;5084499;28;20626;-43
2021/06/22 06:58:36;;;;;;;10.17;8.83;;;15.40;99.90;;;;;;5074417;28;20622;-39
2021/06/22 07:01:01;;;;;;;14.80;9.80;;;15.40;99.90;;;;;;5085457;28;20861;-39
2021/06/22 07:03:27;;;;;;;12.73;9.43;;;15.40;99.90;;;;;;5086545;28;20678;-40
2021/06/22 07:05:53;;;;;;;16.60;10.50;;;15.50;99.90;;;;;;5079755;28;20709;-40
2021/06/22 07:08:18;;;;;;;10.63;9.53;;;15.50;99.90;;;;;;5083544;28;20473;-39
2021/06/22 07:10:44;;;;;;;9.70;8.70;;;15.40;99.90;;;;;;5085816;28;20185;-40
2021/06/22 07:13:15;;;;;;;11.17;9.10;;;15.40;99.90;;;;;;5084451;28;20635;-40
2021/06/22 07:15:41;;;;;;;10.77;8.13;;;15.40;99.90;;;;;;5085434;28;20223;-41
2021/06/22 07:18:07;;;;;;;13.30;9.17;;;15.50;99.90;;;;;;5086869;28;20829;-40
2021/06/22 07:20:33;;;;;;;11.53;8.70;;;15.60;99.90;;;;;;5082287;28;20553;-43
2021/06/22 07:22:59;;;;;;;12.90;9.73;;;15.60;99.90;;;;;;5080588;28;20273;-40
2021/06/22 07:25:27;;;;;;;10.10;9.00;;;15.70;99.90;;;;;;5077715;28;20415;-40
2021/06/22 07:27:54;;;;;;;9.40;7.97;;;15.60;99.90;;;;;;5087037;28;20422;-41
2021/06/22 07:30:23;;;;;;;8.90;8.03;;;15.60;99.90;;;;;;5085831;28;20501;-42
2021/06/22 07:32:52;;;;;;;10.50;7.73;;;15.60;99.90;;;;;;5067485;28;20414;-40
2021/06/22 07:35:18;;;;;;;10.10;8.63;;;15.60;99.90;;;;;;5085476;28;20960;-39
2021/06/22 07:37:45;;;;;;;9.30;8.37;;;15.60;99.90;;;;;;5077127;28;20507;-39
2021/06/22 07:40:11;;;;;;;8.40;7.50;;;15.60;99.90;;;;;;5062910;28;20225;-39
2021/06/22 07:42:38;;;;;;;11.53;8.80;;;15.70;99.90;;;;;;5086366;28;21072;-39
2021/06/22 07:45:05;;;;;;;10.57;8.20;;;15.70;99.90;;;;;;5068181;28;20552;-40
2021/06/22 07:47:31;;;;;;;9.60;8.00;;;15.80;99.90;;;;;;5086702;28;20407;-39
2021/06/22 07:49:57;;;;;;;11.90;7.50;;;15.80;99.90;;;;;;5075385;28;20430;-40
2021/06/22 07:52:23;;;;;;;8.63;6.47;;;15.90;99.90;;;;;;5074583;28;20185;-40
2021/06/22 07:54:48;;;;;;;13.43;8.30;;;16.00;99.90;;;;;;5084438;28;20176;-40
2021/06/22 07:57:14;;;;;;;10.27;7.97;;;16.10;99.90;;;;;;5086278;28;20501;-40
2021/06/22 07:59:40;;;;;;;9.93;8.67;;;16.20;99.90;;;;;;5067567;28;20185;-41
2021/06/22 08:02:06;;;;;;;10.83;9.70;;;16.20;99.90;;;;;;5086315;28;20476;-40
2021/06/22 08:04:31;;;;;;;11.83;8.77;;;16.10;99.90;;;;;;5067962;28;20208;-39
2021/06/22 08:06:57;;;;;;;12.77;9.10;;;16.10;99.90;;;;;;5077008;28;20720;-40
2021/06/22 08:09:23;;;;;;;10.20;9.10;;;16.20;99.90;;;;;;5084567;28;20241;-41
2021/06/22 08:11:49;;;;;;;10.87;9.27;;;16.10;99.90;;;;;;5072432;28;20219;-40
2021/06/22 08:14:15;;;;;;;9.90;8.90;;;16.20;99.90;;;;;;5090245;28;20190;-40
2021/06/22 08:16:41;;;;;;;12.00;10.10;;;16.20;99.90;;;;;;5090537;28;20203;-40
2021/06/22 08:19:07;;;;;;;10.93;9.80;;;16.20;99.90;;;;;;5088922;28;20418;-43
2021/06/22 08:21:33;;;;;;;10.70;9.30;;;16.20;99.90;;;;;;5080044;28;20675;-40
2021/06/22 08:23:59;;;;;;;9.47;8.43;;;16.20;99.90;;;;;;5089886;28;20465;-40
2021/06/22 08:26:24;;;;;;;12.27;7.93;;;16.20;99.90;;;;;;5084752;28;20191;-40
2021/06/22 08:28:50;;;;;;;9.27;8.37;;;16.30;99.90;;;;;;5088958;28;20450;-39
2021/06/22 08:31:18;;;;;;;9.03;8.13;;;16.30;99.90;;;;;;5087882;28;20274;-40
2021/06/22 08:33:44;;;;;;;9.87;8.67;;;16.30;99.90;;;;;;5089691;28;20257;-40
2021/06/22 08:36:10;;;;;;;9.80;8.27;;;16.30;99.90;;;;;;5063586;28;20475;-40
2021/06/22 08:38:35;;;;;;;10.10;7.60;;;16.20;99.90;;;;;;5088315;28;20230;-41
2021/06/22 08:41:05;;;;;;;9.60;8.63;;;16.30;99.90;;;;;;5070290;28;20216;-39
2021/06/22 08:43:31;;;;;;;8.67;7.77;;;16.30;99.90;;;;;;5071058;28;20212;-41
2021/06/22 08:46:00;;;;;;;8.53;7.00;;;16.30;99.90;;;;;;5089135;28;20696;-40
2021/06/22 08:48:28;;;;;;;10.10;7.20;;;16.20;99.90;;;;;;5088926;28;20417;-39
2021/06/22 08:50:54;;;;;;;8.93;6.73;;;16.20;99.90;;;;;;5083644;28;20435;-40
2021/06/22 08:53:19;;;;;;;7.63;6.73;;;16.20;99.90;;;;;;5087878;28;20484;-39
2021/06/22 08:55:46;;;;;;;7.53;6.30;;;16.20;99.90;;;;;;5089093;28;20491;-40
2021/06/22 08:58:17;;;;;;;8.87;6.50;;;16.20;99.90;;;;;;5088997;28;20425;-40
2021/06/22 09:00:48;;;;;;;13.13;7.13;;;16.20;99.90;;;;;;5088252;28;20410;-41
2021/06/22 09:03:16;;;;;;;8.70;6.70;;;16.20;99.90;;;;;;5089415;28;20515;-42
2021/06/22 09:05:47;;;;;;;7.80;6.60;;;16.30;99.90;;;;;;5088127;28;21024;-41
2021/06/22 09:08:19;;;;;;;12.10;7.33;;;16.40;99.90;;;;;;5078829;28;20427;-41
2021/06/22 09:10:46;;;;;;;8.23;6.50;;;16.40;99.90;;;;;;5081285;28;20426;-41
2021/06/22 09:13:23;;;;;;;7.57;5.80;;;16.40;99.90;;;;;;5089527;28;20411;-40
2021/06/22 09:15:52;;;;;;;8.13;7.10;;;16.30;99.90;;;;;;5089348;28;20430;-41
2021/06/22 09:18:26;;;;;;;6.83;5.97;;;16.30;99.90;;;;;;5071105;28;20929;-39
2021/06/22 09:20:54;;;;;;;6.07;5.50;;;16.40;99.90;;;;;;5087967;28;20440;-39
2021/06/22 09:23:29;;;;;;;6.00;5.20;;;16.40;99.90;;;;;;5079080;28;20446;-40
2021/06/22 09:25:56;;;;;;;11.50;6.50;;;16.50;99.90;;;;;;5088472;28;20502;-39
2021/06/22 09:28:28;;;;;;;8.53;6.07;;;16.50;99.90;;;;;;5089054;28;20501;-41
2021/06/22 09:30:56;;;;;;;8.03;5.53;;;16.50;99.90;;;;;;5086712;28;20421;-40
2021/06/22 09:33:39;;;;;;;6.63;6.03;;;16.50;99.90;;;;;;5088975;28;20446;-41
2021/06/22 09:36:06;;;;;;;11.13;7.03;;;16.50;99.90;;;;;;5087662;28;20430;-40
2021/06/22 09:38:36;;;;;;;8.60;6.00;;;16.50;99.90;;;;;;5082597;28;20508;-40
2021/06/22 09:41:09;;;;;;;9.37;6.23;;;16.50;99.90;;;;;;5084115;28;20418;-40
2021/06/22 09:43:36;;;;;;;7.90;6.60;;;16.50;99.90;;;;;;5088885;28;20496;-42
2021/06/22 09:46:02;;;;;;;10.40;7.40;;;16.40;99.90;;;;;;5088709;28;20423;-40
2021/06/22 09:48:28;;;;;;;8.90;6.07;;;16.40;99.90;;;;;;5088450;28;20528;-41
2021/06/22 09:50:53;;;;;;;7.20;6.50;;;16.50;99.90;;;;;;5069182;28;20422;-40
2021/06/22 09:53:23;;;;;;;9.53;6.07;;;16.50;99.90;;;;;;5084063;28;20350;-40
2021/06/22 09:55:49;;;;;;;7.17;5.93;;;16.50;99.90;;;;;;5065391;28;20198;-40
2021/06/22 09:58:14;;;;;;;7.80;7.00;;;16.50;99.90;;;;;;5088364;28;20438;-40
2021/06/22 10:00:40;;;;;;;6.90;5.10;;;16.50;99.90;;;;;;5087827;28;20454;-40
2021/06/22 10:03:06;;;;;;;5.53;4.73;;;16.60;99.90;;;;;;5088138;28;20731;-40
2021/06/22 10:05:49;;;;;;;8.47;5.57;;;16.70;99.90;;;;;;5053432;28;20834;-39
2021/06/22 10:08:15;;;;;;;6.87;5.27;;;16.80;99.90;;;;;;5076816;28;20180;-40
2021/06/22 10:10:41;;;;;;;7.90;5.97;;;16.90;99.90;;;;;;5086702;28;20422;-40
2021/06/22 10:13:08;;;;;;;7.57;5.60;;;16.90;99.90;;;;;;5088070;28;20694;-41
2021/06/22 10:15:33;;;;;;;7.03;5.10;;;17.00;99.90;;;;;;5087954;28;20451;-40
2021/06/22 10:18:00;;;;;;;7.23;5.30;;;17.20;99.90;;;;;;5069833;28;20511;-39
2021/06/22 10:20:26;;;;;;;10.63;5.20;;;17.40;99.90;;;;;;5049294;28;21001;-39
2021/06/22 10:22:52;;;;;;;4.80;4.30;;;17.70;99.90;;;;;;5061541;28;20481;-41
2021/06/22 10:25:19;;;;;;;5.10;4.57;;;17.80;99.90;;;;;;5083562;28;20427;-41
2021/06/22 10:27:48;;;;;;;5.70;4.93;;;17.90;99.90;;;;;;5049872;28;21014;-41
2021/06/22 10:30:14;;;;;;;7.17;5.37;;;17.80;99.90;;;;;;5084801;28;20526;-40
2021/06/22 10:32:40;;;;;;;10.13;5.40;;;17.70;99.90;;;;;;5085970;28;20463;-41
2021/06/22 10:35:11;;;;;;;9.80;5.13;;;17.70;99.90;;;;;;5087706;28;20552;-41
2021/06/22 10:38:07;;;;;;;5.50;5.00;;;17.70;99.90;;;;;;5078347;28;20563;-42
2021/06/22 10:40:34;;;;;;;6.27;5.67;;;17.60;99.90;;;;;;5077205;28;20592;-41
2021/06/22 10:43:06;;;;;;;6.87;5.90;;;17.60;99.90;;;;;;5087027;28;20477;-40
2021/06/22 10:45:32;;;;;;;5.33;4.70;;;17.60;99.90;;;;;;5087638;28;20445;-40
2021/06/22 10:48:01;;;;;;;5.60;4.70;;;17.70;99.90;;;;;;5069518;28;20667;-42
2021/06/22 10:50:32;;;;;;;5.73;5.10;;;17.80;99.90;;;;;;5086818;28;20212;-46
2021/06/22 10:52:58;;;;;;;6.90;4.80;;;17.90;99.90;;;;;;5077325;28;20434;-41
2021/06/22 10:55:34;;;;;;;7.73;5.00;;;18.00;99.90;;;;;;5080996;28;20475;-41
2021/06/22 10:58:03;;;;;;;7.77;5.17;;;18.00;99.90;;;;;;5086581;28;20421;-40
2021/06/22 11:00:31;;;;;;;5.90;5.30;;;18.00;99.90;;;;;;5086701;28;20438;-43
2021/06/22 11:02:56;;;;;;;7.73;5.90;;;17.90;99.90;;;;;;5087360;28;20515;-40
2021/06/22 11:05:22;;;;;;;7.40;6.10;;;17.90;99.90;;;;;;5087150;28;21082;-41
2021/06/22 11:08:14;;;;;;;7.73;6.10;;;17.90;99.90;;;;;;5082510;28;20193;-40
2021/06/22 11:10:41;;;;;;;9.50;6.80;;;17.80;99.90;;;;;;5081440;28;20559;-41
2021/06/22 11:13:27;;;;;;;7.40;5.87;;;17.70;99.90;;;;;;5087292;28;20430;-43
2021/06/22 11:15:54;;;;;;;13.20;6.83;;;17.70;99.90;;;;;;5074559;28;20444;-40
2021/06/22 11:18:20;;;;;;;9.37;6.17;;;17.70;99.90;;;;;;5086675;28;20743;-43
2021/06/22 11:21:06;;;;;;;7.17;6.47;;;17.80;99.90;;;;;;5086106;28;20780;-42
2021/06/22 11:23:55;;;;;;;9.20;6.43;;;17.80;99.90;;;;;;5069317;28;20527;-40
2021/06/22 11:26:21;;;;;;;7.20;6.30;;;17.80;99.90;;;;;;5079020;28;20415;-43
2021/06/22 11:28:57;;;;;;;9.00;6.80;;;17.70;99.90;;;;;;5067612;28;20516;-42
2021/06/22 11:31:45;;;;;;;7.90;6.37;;;17.60;99.90;;;;;;5084969;28;20413;-39
2021/06/22 11:34:40;;;;;;;7.33;6.07;;;17.60;99.90;;;;;;5086970;28;20422;-39
2021/06/22 11:37:05;;;;;;;6.50;5.80;;;17.60;99.90;;;;;;5083671;28;20438;-40
2021/06/22 11:39:57;;;;;;;8.20;5.70;;;17.60;99.90;;;;;;5080005;28;20423;-39
2021/06/22 11:42:23;;;;;;;6.67;5.17;;;17.70;99.90;;;;;;5084931;28;20216;-39
2021/06/22 11:45:13;;;;;;;9.07;5.90;;;17.80;99.90;;;;;;5068590;28;20948;-43
2021/06/22 11:47:39;;;;;;;11.53;5.73;;;17.80;99.90;;;;;;5086267;28;20447;-40
2021/06/22 11:50:10;;;;;;;9.30;5.37;;;17.80;99.90;;;;;;5085913;28;20406;-42
2021/06/22 11:52:39;;;;;;;5.97;5.17;;;17.90;99.90;;;;;;5085371;28;20180;-40
2021/06/22 11:55:16;;;;;;;7.90;5.97;;;17.90;99.90;;;;;;5080721;28;20419;-40
2021/06/22 11:57:46;;;;;;;6.97;5.23;;;17.80;99.90;;;;;;5083412;28;21006;-39
2021/06/22 12:00:17;;;;;;;6.10;5.47;;;17.80;99.90;;;;;;5086402;28;20483;-40
2021/06/22 12:03:01;;;;;;;7.40;5.60;;;17.80;99.90;;;;;;5086258;28;20476;-40
2021/06/22 12:05:29;;;;;;;10.30;5.40;;;17.90;99.90;;;;;;5086521;28;20422;-41
2021/06/22 12:07:56;;;;;;;5.50;4.83;;;17.90;99.90;;;;;;5078172;28;20431;-40
2021/06/22 12:10:39;;;;;;;9.40;6.30;;;18.00;99.90;;;;;;5082739;28;20463;-40
2021/06/22 12:13:05;;;;;;;6.50;5.17;;;18.00;99.90;;;;;;5079265;28;20463;-42
2021/06/22 12:15:33;;;;;;;6.23;5.67;;;18.00;99.90;;;;;;5086361;28;20415;-39
2021/06/22 12:17:59;;;;;;;7.23;6.23;;;18.00;99.90;;;;;;5086071;28;20458;-41
2021/06/22 12:20:31;;;;;;;9.00;5.93;;;18.10;99.90;;;;;;5067569;28;20431;-40
2021/06/22 12:23:09;;;;;;;7.47;6.13;;;18.00;99.90;;;;;;5080267;28;20458;-41
2021/06/22 12:25:40;;;;;;;6.53;5.73;;;18.10;99.90;;;;;;5083327;28;21163;-39
2021/06/22 12:28:07;;;;;;;6.57;5.97;;;18.10;99.90;;;;;;5065489;28;20414;-41
2021/06/22 12:30:44;;;;;;;7.10;6.33;;;18.10;99.90;;;;;;5083913;28;20513;-40
2021/06/22 12:33:23;;;;;;;7.53;6.70;;;18.00;99.90;;;;;;5068000;28;20877;-41
2021/06/22 12:35:53;;;;;;;8.90;7.00;;;18.00;99.90;;;;;;5086035;28;20453;-41
2021/06/22 12:38:21;;;;;;;8.00;7.20;;;18.00;99.90;;;;;;5059604;28;20769;-40
2021/06/22 12:40:55;;;;;;;7.47;6.67;;;18.00;99.90;;;;;;5083396;28;20487;-41
2021/06/22 12:43:43;;;;;;;7.57;6.73;;;18.00;99.90;;;;;;5085816;28;20461;-40
2021/06/22 12:46:09;;;;;;;6.93;5.70;;;17.90;99.90;;;;;;5086012;28;20420;-40
2021/06/22 12:48:35;;;;;;;7.57;5.80;;;17.90;99.90;;;;;;5067679;28;20429;-40